Time;durP1;ratioP1;P1;durP2;ratioP2;P2;SDS_P1;SDS_P2;PMS_P1;PMS_P2;Temp;Humidity;BMP_temperature;BMP_pressure;BME280_temperature;BME280_humidity;BME280_pressure;Samples;Min_cycle;Max_cycle;Signal;HPM_P1;HPM_P2
2024/03/20 00:00:06;;;;;;;11.97;6.33;;;;;;;10.61;100.00;103185.13;5011447;28;20184;-73
2024/03/20 00:02:31;;;;;;;12.70;5.80;;;;;;;11.01;100.00;103245.03;4998082;28;20729;-73
2024/03/20 00:04:57;;;;;;;17.80;5.40;;;;;;;10.88;100.00;103207.75;5008452;28;20439;-74
2024/03/20 00:07:23;;;;;;;11.23;5.73;;;;;;;10.44;100.00;103148.28;5008997;28;20183;-73
2024/03/20 00:09:48;;;;;;;9.53;5.67;;;;;;;10.59;100.00;103173.72;5009603;28;20420;-74
2024/03/20 00:12:14;;;;;;;15.27;6.03;;;;;;;10.66;100.00;103168.63;5006430;28;20673;-73
2024/03/20 00:14:39;;;;;;;10.30;5.37;;;;;;;10.80;100.00;103137.81;5000565;28;20177;-73
2024/03/20 00:17:07;;;;;;;13.00;6.20;;;;;;;10.54;100.00;103063.25;4994588;28;20173;-74
2024/03/20 00:19:33;;;;;;;10.43;5.63;;;;;;;10.67;100.00;103111.25;4984944;28;20208;-73
2024/03/20 00:21:59;;;;;;;13.23;6.20;;;;;;;10.00;100.00;102980.72;5009925;28;20447;-73
2024/03/20 00:24:24;;;;;;;18.07;6.13;;;;;;;10.60;100.00;103116.34;5012315;28;20498;-73
2024/03/20 00:26:50;;;;;;;12.20;6.03;;;;;;;10.20;100.00;102993.13;5014005;28;20809;-74
2024/03/20 00:29:16;;;;;;;16.93;5.87;;;;;;;10.32;100.00;103024.19;5009399;28;20719;-74
2024/03/20 00:31:42;;;;;;;15.10;6.77;;;;;;;9.82;100.00;102908.22;5011543;28;20275;-73
2024/03/20 00:34:07;;;;;;;10.27;5.37;;;;;;;10.62;100.00;103020.47;5004083;28;20212;-73
2024/03/20 00:36:34;;;;;;;13.97;5.73;;;;;;;10.18;100.00;102906.59;5012392;28;20515;-73
2024/03/20 00:38:59;;;;;;;12.20;5.93;;;;;;;10.52;100.00;102976.69;5010665;28;20283;-74
2024/03/20 00:41:25;;;;;;;10.70;5.93;;;;;;;9.71;100.00;102837.72;5008226;28;20889;-73
2024/03/20 00:43:50;;;;;;;12.27;5.67;;;;;;;10.31;100.00;102922.41;5011155;28;20198;-74
2024/03/20 00:46:16;;;;;;;12.13;5.60;;;;;;;10.26;100.00;102890.63;5007463;28;20189;-74
2024/03/20 00:48:41;;;;;;;14.00;7.10;;;;;;;10.49;100.00;102922.47;5011242;28;20567;-74
2024/03/20 00:51:07;;;;;;;13.23;6.00;;;;;;;10.09;100.00;102849.31;5011418;28;20276;-73
2024/03/20 00:53:32;;;;;;;14.27;5.50;;;;;;;10.10;100.00;102852.88;5016096;28;20548;-73
2024/03/20 00:55:58;;;;;;;13.77;6.13;;;;;;;10.06;100.00;102830.84;5008941;28;20185;-73
2024/03/20 00:58:23;;;;;;;10.13;5.60;;;;;;;10.34;100.00;102871.97;5013574;28;20188;-73
2024/03/20 01:00:49;;;;;;;14.00;6.40;;;;;;;9.61;100.00;102743.13;5009817;28;20177;-73
2024/03/20 01:03:14;;;;;;;10.70;4.90;;;;;;;10.13;100.00;102837.31;5010930;28;20212;-73
2024/03/20 01:05:41;;;;;;;13.83;6.50;;;;;;;9.68;100.00;102764.81;5011628;28;20177;-73
2024/03/20 01:08:06;;;;;;;11.57;5.60;;;;;;;10.53;100.00;102921.19;5013291;28;20749;-73
2024/03/20 01:10:32;;;;;;;14.67;5.53;;;;;;;10.24;100.00;102883.69;4986129;28;20517;-73
2024/03/20 01:12:57;;;;;;;14.23;5.10;;;;;;;9.80;100.00;102844.03;5008070;28;20196;-74
2024/03/20 01:15:23;;;;;;;15.40;5.83;;;;;;;9.57;100.00;102789.94;5010530;28;20682;-74
2024/03/20 01:17:48;;;;;;;13.60;5.50;;;;;;;10.23;100.00;102912.38;5008116;28;20192;-73
2024/03/20 01:20:14;;;;;;;16.33;5.13;;;;;;;10.39;100.00;102946.66;5012896;28;20278;-73
2024/03/20 01:22:40;;;;;;;14.50;5.43;;;;;;;10.49;100.00;102990.41;5008879;28;20884;-73
2024/03/20 01:25:07;;;;;;;11.70;4.57;;;;;;;10.52;100.00;102984.75;5011546;28;20185;-75
2024/03/20 01:27:33;;;;;;;13.60;5.70;;;;;;;10.51;100.00;102996.47;5011846;28;20185;-74
2024/03/20 01:29:58;;;;;;;12.27;5.47;;;;;;;10.21;100.00;102948.34;5011279;28;20484;-73
2024/03/20 01:32:24;;;;;;;12.00;5.27;;;;;;;10.48;100.00;102990.56;5012176;28;20462;-73
2024/03/20 01:34:49;;;;;;;10.67;4.80;;;;;;;10.53;100.00;103010.59;5012047;28;20190;-73
2024/03/20 01:37:15;;;;;;;19.50;5.37;;;;;;;9.96;100.00;102943.47;5009293;28;20327;-74
2024/03/20 01:39:41;;;;;;;13.23;5.20;;;;;;;10.53;100.00;103056.22;4988304;28;20192;-73
2024/03/20 01:42:07;;;;;;;13.13;5.80;;;;;;;9.74;100.00;102919.66;5012370;28;20213;-73
2024/03/20 01:44:32;;;;;;;18.07;5.73;;;;;;;9.98;100.00;102977.34;5013047;28;20436;-73
2024/03/20 01:46:58;;;;;;;12.13;5.20;;;;;;;10.50;100.00;103083.34;5007509;28;20181;-73
2024/03/20 01:49:24;;;;;;;11.33;4.83;;;;;;;9.91;100.00;103006.56;5005484;28;20312;-73
2024/03/20 01:51:51;;;;;;;12.83;4.80;;;;;;;10.76;100.00;103163.22;5005850;28;20308;-74
2024/03/20 01:54:16;;;;;;;9.30;4.50;;;;;;;10.80;100.00;103178.91;5010425;28;20447;-74
2024/03/20 01:56:43;;;;;;;13.40;4.63;;;;;;;10.77;100.00;103200.69;5013366;28;20431;-73
2024/03/20 01:59:09;;;;;;;8.70;3.83;;;;;;;9.90;100.00;103058.47;5013563;28;20192;-73
2024/03/20 02:01:35;;;;;;;9.77;5.07;;;;;;;10.51;100.00;103162.84;5010262;28;20852;-73
2024/03/20 02:04:02;;;;;;;12.53;3.80;;;;;;;10.48;100.00;103148.88;5012706;28;20476;-73
2024/03/20 02:06:29;;;;;;;14.70;5.20;;;;;;;10.73;100.00;103188.56;5010116;28;20870;-73
2024/03/20 02:08:56;;;;;;;10.97;4.67;;;;;;;10.50;100.00;103141.50;5007454;28;20431;-73
2024/03/20 02:11:24;;;;;;;11.60;4.17;;;;;;;10.41;100.00;103135.16;5006521;28;20507;-73
2024/03/20 02:13:51;;;;;;;11.70;4.50;;;;;;;10.54;100.00;103124.97;5006720;28;21255;-74
2024/03/20 02:16:18;;;;;;;14.23;4.60;;;;;;;10.46;100.00;103103.38;5011170;28;20443;-73
2024/03/20 02:18:44;;;;;;;11.20;4.40;;;;;;;10.38;100.00;103113.97;5011170;28;20432;-73
2024/03/20 02:21:14;;;;;;;12.20;4.20;;;;;;;10.56;100.00;103136.44;5008304;28;20543;-73
2024/03/20 02:23:40;;;;;;;10.63;4.57;;;;;;;10.21;100.00;103095.88;4999639;28;21079;-73
2024/03/20 02:26:06;;;;;;;12.30;4.60;;;;;;;10.54;100.00;103138.41;4986942;28;20526;-74
2024/03/20 02:28:33;;;;;;;10.70;4.60;;;;;;;10.42;100.00;103107.34;5007514;28;20570;-73
2024/03/20 02:31:00;;;;;;;9.30;4.50;;;;;;;9.77;100.00;102982.84;5005556;28;20443;-73
2024/03/20 02:33:25;;;;;;;11.60;4.57;;;;;;;10.27;100.00;103047.06;5008346;28;20443;-73
2024/03/20 02:35:55;;;;;;;11.00;4.33;;;;;;;10.54;100.00;103094.63;5007148;28;20439;-73
2024/03/20 02:38:25;;;;;;;10.10;4.70;;;;;;;10.22;100.00;103033.22;4990446;28;20185;-73
2024/03/20 02:40:52;;;;;;;10.30;4.57;;;;;;;10.32;100.00;103024.19;5009144;28;20817;-74
2024/03/20 02:43:19;;;;;;;12.80;4.70;;;;;;;10.26;100.00;103046.19;5007877;28;20477;-73
2024/03/20 02:45:44;;;;;;;14.07;4.27;;;;;;;10.16;100.00;102991.72;5008250;28;20436;-74
2024/03/20 02:48:10;;;;;;;10.80;4.40;;;;;;;10.22;100.00;103043.94;5009728;28;20493;-73
2024/03/20 02:50:36;;;;;;;10.13;4.07;;;;;;;10.06;100.00;103031.09;5011899;28;20195;-74
2024/03/20 02:53:04;;;;;;;11.27;4.70;;;;;;;10.02;100.00;103008.25;5008625;28;20467;-73
2024/03/20 02:55:37;;;;;;;13.30;5.07;;;;;;;10.24;100.00;103031.22;5009392;28;20185;-73
2024/03/20 02:58:03;;;;;;;10.43;4.03;;;;;;;9.50;100.00;102898.66;5008171;28;20428;-73
2024/03/20 03:00:30;;;;;;;10.27;4.57;;;;;;;10.22;100.00;103017.97;5009918;28;20446;-73
2024/03/20 03:02:57;;;;;;;15.73;5.07;;;;;;;9.86;100.00;102931.91;5007586;28;20216;-73
2024/03/20 03:05:26;;;;;;;11.20;5.27;;;;;;;10.22;100.00;102980.41;5011654;28;20439;-73
2024/03/20 03:07:52;;;;;;;13.07;5.77;;;;;;;9.98;100.00;102932.63;5004340;28;20437;-73
2024/03/20 03:10:19;;;;;;;10.60;5.23;;;;;;;10.18;100.00;102966.47;5007824;28;20440;-73
2024/03/20 03:12:46;;;;;;;12.73;4.90;;;;;;;10.10;100.00;102977.06;5008349;28;20479;-73
2024/03/20 03:15:12;;;;;;;12.00;4.57;;;;;;;9.56;100.00;102918.69;5008948;28;20456;-73
2024/03/20 03:17:39;;;;;;;10.97;4.30;;;;;;;10.04;100.00;102987.47;5006919;28;20447;-73
2024/03/20 03:20:06;;;;;;;13.80;5.43;;;;;;;10.02;100.00;102990.31;5008585;28;20193;-74
2024/03/20 03:22:32;;;;;;;16.30;4.90;;;;;;;9.90;100.00;102973.53;5008645;28;20483;-74
2024/03/20 03:24:58;;;;;;;10.47;4.33;;;;;;;9.81;100.00;102960.16;5012559;28;20427;-73
2024/03/20 03:27:23;;;;;;;11.30;4.43;;;;;;;10.09;100.00;103007.50;5002475;28;20439;-73
2024/03/20 03:29:48;;;;;;;12.23;4.87;;;;;;;9.25;100.00;102879.47;4981672;28;20537;-73
2024/03/20 03:32:14;;;;;;;10.93;4.57;;;;;;;10.14;100.00;103029.41;5012023;28;20204;-73
2024/03/20 03:34:40;;;;;;;10.80;4.17;;;;;;;10.18;100.00;103067.50;5008337;28;20184;-73
2024/03/20 03:37:05;;;;;;;12.20;4.93;;;;;;;10.21;100.00;103080.63;5009736;28;20177;-73
2024/03/20 03:39:30;;;;;;;12.00;4.77;;;;;;;9.07;100.00;102926.66;5013291;28;20639;-73
2024/03/20 03:41:56;;;;;;;14.03;4.73;;;;;;;10.00;100.00;103079.91;5008483;28;20208;-74
2024/03/20 03:44:21;;;;;;;15.87;4.47;;;;;;;9.84;100.00;103073.28;5007331;28;20838;-74
2024/03/20 03:46:47;;;;;;;11.80;5.00;;;;;;;9.21;100.00;102979.81;5007289;28;20190;-73
2024/03/20 03:49:12;;;;;;;15.20;4.73;;;;;;;9.88;100.00;103125.63;5011247;28;20188;-73
2024/03/20 03:51:38;;;;;;;9.20;4.50;;;;;;;9.05;100.00;102984.84;5007259;28;20587;-73
2024/03/20 03:54:04;;;;;;;12.33;5.00;;;;;;;9.48;100.00;103078.28;5005707;28;20288;-73
2024/03/20 03:56:29;;;;;;;10.40;4.40;;;;;;;9.78;100.00;103115.84;5010189;28;20185;-73
2024/03/20 03:58:54;;;;;;;11.13;4.30;;;;;;;9.06;100.00;103016.00;5013588;28;20185;-74
2024/03/20 04:01:21;;;;;;;11.90;4.30;;;;;;;10.02;100.00;103156.56;5014085;28;20259;-74
2024/03/20 04:03:47;;;;;;;10.50;4.50;;;;;;;9.58;100.00;103058.72;5012206;28;20556;-74
2024/03/20 04:06:12;;;;;;;11.07;4.73;;;;;;;9.88;100.00;103089.94;5013095;28;20445;-74
2024/03/20 04:08:38;;;;;;;13.97;5.60;;;;;;;10.01;100.00;103111.09;5011598;28;20913;-73
2024/03/20 04:11:04;;;;;;;9.27;4.60;;;;;;;9.92;100.00;103107.41;5009205;28;20185;-73
2024/03/20 04:13:30;;;;;;;10.07;4.37;;;;;;;9.61;100.00;103031.66;5007271;28;20432;-73
2024/03/20 04:15:55;;;;;;;14.00;4.40;;;;;;;9.33;100.00;102991.25;5013294;28;20462;-73
2024/03/20 04:18:21;;;;;;;12.07;4.60;;;;;;;9.80;100.00;103079.91;5012544;28;20216;-74
2024/03/20 04:20:46;;;;;;;15.87;8.10;;;;;;;9.62;100.00;103044.91;5011064;28;20192;-73
2024/03/20 04:23:12;;;;;;;14.30;8.40;;;;;;;9.84;100.00;103078.66;5010465;28;20212;-74
2024/03/20 04:25:39;;;;;;;15.87;11.47;;;;;;;9.66;100.00;103059.72;5015341;28;20231;-74
2024/03/20 04:28:05;;;;;;;11.80;6.93;;;;;;;9.71;100.00;103073.53;4986649;28;20189;-73
2024/03/20 04:30:30;;;;;;;13.17;6.47;;;;;;;9.05;100.00;102953.59;5007804;28;20436;-74
2024/03/20 04:32:56;;;;;;;12.73;5.37;;;;;;;9.76;100.00;103014.16;5010781;28;20867;-74
2024/03/20 04:35:21;;;;;;;16.47;7.10;;;;;;;10.00;100.00;103048.59;4988559;28;20320;-73
2024/03/20 04:37:47;;;;;;;11.83;4.73;;;;;;;9.83;100.00;103030.53;5008283;28;22179;-73
2024/03/20 04:40:12;;;;;;;11.40;4.80;;;;;;;9.83;100.00;103046.59;5012395;28;20268;-73
2024/03/20 04:42:38;;;;;;;14.30;5.97;;;;;;;9.43;100.00;102991.28;5009417;28;20213;-73
2024/03/20 04:45:04;;;;;;;15.37;5.70;;;;;;;9.91;100.00;103062.84;5009146;28;20787;-73
2024/03/20 04:47:30;;;;;;;14.10;5.30;;;;;;;9.76;100.00;103048.16;5010820;28;20185;-73
2024/03/20 04:49:55;;;;;;;11.77;5.10;;;;;;;9.62;100.00;103031.50;5011068;28;20909;-74
2024/03/20 04:52:21;;;;;;;12.83;5.40;;;;;;;9.00;100.00;102926.38;5013421;28;20320;-74
2024/03/20 04:54:46;;;;;;;13.87;5.20;;;;;;;8.77;100.00;102872.25;5010286;28;20380;-74
2024/03/20 04:57:12;;;;;;;9.50;4.60;;;;;;;9.33;100.00;102971.69;5013780;28;20192;-74
2024/03/20 04:59:37;;;;;;;11.50;5.50;;;;;;;9.75;100.00;103039.28;5007244;28;20232;-74
2024/03/20 05:02:03;;;;;;;11.50;5.17;;;;;;;9.45;100.00;102984.78;5015681;28;20204;-74
2024/03/20 05:04:28;;;;;;;16.17;6.43;;;;;;;8.79;100.00;102893.50;5011956;28;20176;-74
2024/03/20 05:06:54;;;;;;;21.40;6.50;;;;;;;9.54;100.00;102996.50;5012347;28;20185;-74
2024/03/20 05:09:19;;;;;;;14.03;5.13;;;;;;;9.49;100.00;102996.94;5008071;28;20541;-74
2024/03/20 05:11:45;;;;;;;9.53;5.00;;;;;;;9.56;100.00;102986.50;5010971;28;20218;-74
2024/03/20 05:14:10;;;;;;;15.33;5.80;;;;;;;9.32;100.00;102944.06;5008003;28;20197;-74
2024/03/20 05:16:36;;;;;;;11.93;5.03;;;;;;;9.73;100.00;102988.50;5008947;28;20191;-74
2024/03/20 05:19:02;;;;;;;11.13;5.10;;;;;;;9.13;100.00;102952.88;5009887;28;20288;-74
2024/03/20 05:21:28;;;;;;;12.17;5.57;;;;;;;9.08;100.00;102954.28;5006287;28;20551;-74
2024/03/20 05:23:54;;;;;;;10.83;5.10;;;;;;;8.38;100.00;102796.34;5013730;28;20266;-74
2024/03/20 05:26:20;;;;;;;14.57;5.50;;;;;;;9.46;100.00;102988.34;5010264;28;20521;-74
2024/03/20 05:28:45;;;;;;;15.67;6.00;;;;;;;8.80;100.00;102863.94;5008967;28;20924;-74
2024/03/20 05:31:28;;;;;;;12.63;5.77;;;;;;;9.68;100.00;103020.22;5009605;28;20232;-74
2024/03/20 05:33:54;;;;;;;13.90;6.07;;;;;;;9.51;100.00;103036.97;5012310;28;20184;-74
2024/03/20 05:36:20;;;;;;;12.40;5.80;;;;;;;9.28;100.00;103006.91;5010685;28;20447;-74
2024/03/20 05:38:45;;;;;;;9.57;5.10;;;;;;;9.07;100.00;102980.22;5006315;28;20193;-74
2024/03/20 05:41:11;;;;;;;15.13;6.20;;;;;;;9.43;100.00;103040.38;5008126;28;20658;-74
2024/03/20 05:43:36;;;;;;;12.60;6.30;;;;;;;9.17;100.00;102958.81;5008444;28;20220;-74
2024/03/20 05:46:03;;;;;;;12.73;6.47;;;;;;;8.49;100.00;102851.59;5003005;28;20199;-74
2024/03/20 05:48:29;;;;;;;14.70;5.23;;;;;;;9.13;100.00;102998.41;5005985;28;20193;-74
2024/03/20 05:50:56;;;;;;;13.13;6.10;;;;;;;9.26;100.00;102985.63;5009241;28;20779;-74
2024/03/20 05:53:21;;;;;;;17.37;6.30;;;;;;;9.35;100.00;102948.28;5005810;28;20184;-74
2024/03/20 05:55:47;;;;;;;13.10;6.30;;;;;;;9.44;100.00;102952.81;4999884;28;20849;-74
2024/03/20 05:58:43;;;;;;;10.37;6.03;;;;;;;9.58;100.00;102973.00;5006856;28;20178;-74
2024/03/20 06:01:09;;;;;;;14.77;5.50;;;;;;;9.56;100.00;102962.41;5008481;28;21067;-74
2024/03/20 06:03:35;;;;;;;12.00;5.37;;;;;;;9.48;100.00;102938.97;5011147;28;20838;-74
2024/03/20 06:06:01;;;;;;;13.33;6.80;;;;;;;9.21;100.00;102864.69;5012649;28;20439;-74
2024/03/20 06:08:28;;;;;;;13.13;6.77;;;;;;;9.63;100.00;102933.19;5009882;28;20184;-74
2024/03/20 06:10:55;;;;;;;10.00;5.30;;;;;;;9.69;100.00;102925.47;5013330;28;20247;-74
2024/03/20 06:13:20;;;;;;;14.67;5.70;;;;;;;9.52;100.00;102888.66;5008841;28;20439;-74
2024/03/20 06:15:46;;;;;;;17.27;6.73;;;;;;;9.67;100.00;102915.88;5008355;28;20439;-74
2024/03/20 06:18:11;;;;;;;14.10;7.23;;;;;;;9.59;100.00;102887.09;4983509;28;20495;-74
2024/03/20 06:20:37;;;;;;;15.07;7.17;;;;;;;9.72;100.00;102898.38;5008245;28;20646;-74
2024/03/20 06:23:02;;;;;;;14.33;6.57;;;;;;;9.79;100.00;102905.84;5007090;28;20219;-74
2024/03/20 06:25:28;;;;;;;13.20;6.33;;;;;;;9.57;100.00;102859.59;5013447;28;20185;-74
2024/03/20 06:27:53;;;;;;;15.23;5.93;;;;;;;9.10;100.00;102768.44;5007624;28;20182;-74
2024/03/20 06:30:19;;;;;;;11.80;6.20;;;;;;;9.67;100.00;102864.94;5009435;28;20776;-74
2024/03/20 06:32:46;;;;;;;14.50;6.80;;;;;;;9.94;100.00;102901.72;5011841;28;20749;-74
2024/03/20 06:35:13;;;;;;;12.50;6.13;;;;;;;9.02;100.00;102762.94;4989120;28;20208;-74
2024/03/20 06:37:38;;;;;;;12.47;6.43;;;;;;;9.84;100.00;102887.50;5005342;28;20428;-74
2024/03/20 06:40:11;;;;;;;14.83;6.10;;;;;;;9.50;100.00;102837.88;5010472;28;20971;-74
2024/03/20 06:42:39;;;;;;;14.10;6.37;;;;;;;9.36;100.00;102808.03;5006326;28;20724;-74
2024/03/20 06:45:06;;;;;;;11.43;6.40;;;;;;;9.62;100.00;102851.97;5012543;28;20428;-74
2024/03/20 06:47:31;;;;;;;11.47;6.03;;;;;;;8.98;100.00;102759.72;5009885;28;20444;-74
2024/03/20 06:49:57;;;;;;;14.90;7.10;;;;;;;9.47;100.00;102850.72;5011074;28;20422;-74
2024/03/20 06:52:23;;;;;;;14.23;7.03;;;;;;;9.80;100.00;102911.03;5008884;28;20681;-74
2024/03/20 06:54:50;;;;;;;13.47;6.83;;;;;;;9.71;100.00;102888.63;5009119;28;20178;-74
2024/03/20 06:57:17;;;;;;;20.33;7.63;;;;;;;9.68;100.00;102885.41;5009540;28;20184;-74
2024/03/20 06:59:46;;;;;;;13.00;7.70;;;;;;;10.07;100.00;102930.91;5009530;28;20451;-74
2024/03/20 07:02:13;;;;;;;20.30;8.10;;;;;;;9.98;100.00;102913.84;5006856;28;20456;-74
2024/03/20 07:04:38;;;;;;;14.83;7.30;;;;;;;10.23;100.00;102946.38;5008523;28;20516;-74
2024/03/20 07:07:04;;;;;;;19.20;8.20;;;;;;;10.20;100.00;102966.28;5013341;28;20980;-74
2024/03/20 07:09:31;;;;;;;15.87;7.47;;;;;;;10.38;100.00;102969.09;5007832;28;20196;-74
2024/03/20 07:11:57;;;;;;;16.63;7.20;;;;;;;9.83;100.00;102889.31;5008408;28;20535;-74
2024/03/20 07:14:24;;;;;;;15.03;7.57;;;;;;;10.04;100.00;102945.44;5007323;28;20431;-74
2024/03/20 07:16:49;;;;;;;16.80;8.80;;;;;;;9.76;100.00;102906.97;5008815;28;20427;-74
2024/03/20 07:19:15;;;;;;;19.90;8.43;;;;;;;9.78;100.00;102917.53;5013647;28;20435;-74
2024/03/20 07:21:40;;;;;;;18.20;8.70;;;;;;;10.26;100.00;102999.75;5007685;28;20292;-74
2024/03/20 07:24:07;;;;;;;18.33;8.10;;;;;;;10.43;100.00;103044.63;5009793;28;20204;-74
2024/03/20 07:26:37;;;;;;;15.53;8.53;;;;;;;10.17;100.00;103010.34;5006190;28;20295;-74
2024/03/20 07:29:04;;;;;;;15.10;8.77;;;;;;;10.36;100.00;103065.00;5005708;28;20451;-74
2024/03/20 07:31:29;;;;;;;18.77;8.70;;;;;;;10.23;100.00;103091.22;5007168;28;20517;-74
2024/03/20 07:33:55;;;;;;;17.07;8.07;;;;;;;10.54;100.00;103137.56;5006639;28;20428;-74
2024/03/20 07:36:20;;;;;;;18.30;8.90;;;;;;;10.37;100.00;103126.53;5007990;28;20745;-74
2024/03/20 07:38:45;;;;;;;17.27;8.20;;;;;;;10.48;100.00;103189.97;5008645;28;20177;-74
2024/03/20 07:41:11;;;;;;;25.50;8.57;;;;;;;10.26;100.00;103118.59;5007856;28;20201;-74
2024/03/20 07:43:39;;;;;;;17.00;9.60;;;;;;;10.30;100.00;103183.56;4983464;28;20214;-74
2024/03/20 07:46:04;;;;;;;18.83;9.10;;;;;;;10.71;100.00;103283.63;5009051;28;20242;-74
2024/03/20 07:48:32;;;;;;;18.60;9.20;;;;;;;9.77;100.00;103160.59;5025944;22;20487;-75
2024/03/20 07:50:58;;;;;;;15.57;7.70;;;;;;;8.80;100.00;102973.66;5001538;28;20189;-76
2024/03/20 07:53:24;;;;;;;16.27;8.03;;;;;;;10.30;100.00;103245.25;5006826;28;20455;-75
2024/03/20 07:55:50;;;;;;;17.37;8.10;;;;;;;8.61;100.00;102960.19;5009696;28;20812;-76
2024/03/20 07:58:17;;;;;;;17.37;7.60;;;;;;;9.59;100.00;103109.47;5007682;28;20184;-76
2024/03/20 08:00:44;;;;;;;18.57;8.53;;;;;;;10.13;100.00;103220.78;5000821;28;20500;-76
2024/03/20 08:03:09;;;;;;;18.10;8.50;;;;;;;9.84;100.00;103159.06;5005125;28;20843;-76
2024/03/20 08:05:35;;;;;;;15.87;8.03;;;;;;;8.90;100.00;102973.66;5004842;28;20606;-76
2024/03/20 08:08:00;;;;;;;18.20;8.57;;;;;;;9.53;100.00;103120.75;5005011;28;20177;-76
2024/03/20 08:10:27;;;;;;;14.37;7.77;;;;;;;9.26;100.00;103087.38;5004190;28;20646;-76
2024/03/20 08:12:52;;;;;;;19.47;9.20;;;;;;;9.35;100.00;103036.69;5002432;28;20185;-76
2024/03/20 08:15:18;;;;;;;16.67;7.97;;;;;;;8.68;100.00;102996.13;5006414;28;20933;-76
2024/03/20 08:17:46;;;;;;;17.10;8.70;;;;;;;9.71;100.00;103153.94;5001819;28;20268;-75
2024/03/20 08:20:12;;;;;;;18.77;9.70;;;;;;;9.61;100.00;103137.00;5004251;28;20189;-76
2024/03/20 08:22:41;;;;;;;20.33;8.67;;;;;;;10.20;100.00;103215.72;5003519;28;20463;-76
2024/03/20 08:25:08;;;;;;;19.27;8.43;;;;;;;9.11;100.00;102992.31;5004256;28;20537;-76
2024/03/20 08:27:34;;;;;;;16.17;8.53;;;;;;;8.81;100.00;102956.59;5002637;28;20526;-76
2024/03/20 08:30:00;;;;;;;21.47;7.70;;;;;;;9.43;100.00;103066.28;5005023;28;20523;-76
2024/03/20 08:32:26;;;;;;;17.33;8.23;;;;;;;9.60;100.00;103148.66;5004094;28;20605;-76
2024/03/20 08:34:51;;;;;;;16.60;7.77;;;;;;;8.65;100.00;102968.78;5004575;28;20655;-76
2024/03/20 08:37:17;;;;;;;16.83;8.30;;;;;;;10.35;100.00;103238.50;5003481;28;20187;-76
2024/03/20 08:39:42;;;;;;;16.03;8.23;;;;;;;10.37;100.00;103235.69;5003285;28;20197;-76
2024/03/20 08:42:08;;;;;;;18.47;8.30;;;;;;;9.85;100.00;103141.97;5004729;28;20209;-76
2024/03/20 08:44:33;;;;;;;16.37;8.10;;;;;;;10.75;100.00;103295.75;5006637;28;22069;-76
2024/03/20 08:46:59;;;;;;;15.27;7.13;;;;;;;10.02;100.00;103203.97;4983571;28;20185;-76
2024/03/20 08:49:25;;;;;;;17.60;7.37;;;;;;;9.50;100.00;103107.63;4983595;28;20197;-76
2024/03/20 08:51:51;;;;;;;17.60;7.80;;;;;;;9.13;100.00;103002.91;5006041;28;20213;-76
2024/03/20 08:54:18;;;;;;;13.93;7.43;;;;;;;9.21;100.00;103001.25;5007212;28;20177;-76
2024/03/20 08:56:43;;;;;;;17.20;6.93;;;;;;;9.48;100.00;103053.31;4989841;28;20844;-76
2024/03/20 08:59:09;;;;;;;22.37;7.27;;;;;;;9.37;100.00;103023.97;5005696;28;20439;-76
2024/03/20 09:01:35;;;;;;;14.90;6.70;;;;;;;9.40;100.00;102991.56;4982115;28;20677;-76
2024/03/20 09:04:00;;;;;;;14.23;6.60;;;;;;;10.50;100.00;103176.38;4982220;28;20208;-76
2024/03/20 09:06:25;;;;;;;15.87;5.97;;;;;;;9.53;100.00;103010.91;5006593;28;20234;-76
2024/03/20 09:08:51;;;;;;;11.57;5.40;;;;;;;9.75;100.00;103020.53;5005307;28;20771;-76
2024/03/20 09:11:17;;;;;;;10.47;4.87;;;;;;;10.50;100.00;103192.47;5006210;28;20208;-76
2024/03/20 09:13:43;;;;;;;12.00;5.13;;;;;;;10.75;100.00;103205.34;5006963;28;20173;-76
2024/03/20 09:16:08;;;;;;;12.23;5.27;;;;;;;10.93;100.00;103194.72;5007645;28;20185;-76
2024/03/20 09:18:34;;;;;;;12.57;4.33;;;;;;;10.79;100.00;103171.00;5006009;28;20463;-76
2024/03/20 09:20:59;;;;;;;12.37;5.70;;;;;;;10.00;100.00;103083.44;5005710;28;20560;-76
2024/03/20 09:23:25;;;;;;;13.57;5.30;;;;;;;9.43;100.00;102945.72;5007385;28;20591;-76
2024/03/20 09:25:52;;;;;;;13.87;5.70;;;;;;;9.62;100.00;102977.91;5010750;28;20276;-76
2024/03/20 09:28:17;;;;;;;15.63;5.20;;;;;;;10.69;100.00;103054.75;5005809;28;20769;-76
2024/03/20 09:30:43;;;;;;;14.87;5.50;;;;;;;11.38;100.00;103244.28;5004706;28;20803;-76
2024/03/20 09:33:08;;;;;;;14.67;5.83;;;;;;;10.27;100.00;103072.06;5003979;28;20204;-76
2024/03/20 09:35:34;;;;;;;19.03;6.03;;;;;;;9.62;100.00;102934.19;5005305;28;20173;-76
2024/03/20 09:37:59;;;;;;;15.33;6.43;;;;;;;9.75;100.00;102993.72;5006266;28;20181;-76
2024/03/20 09:40:26;;;;;;;13.97;5.83;;;;;;;10.58;100.00;103039.66;5006641;28;20188;-76
2024/03/20 09:42:53;;;;;;;12.23;5.40;;;;;;;9.88;100.00;103006.84;5007366;28;20781;-76
2024/03/20 09:45:20;;;;;;;13.00;5.53;;;;;;;9.83;100.00;102929.50;5008482;28;20498;-76
2024/03/20 09:47:50;;;;;;;15.13;6.17;;;;;;;10.00;100.00;102978.88;5008161;28;20441;-76
2024/03/20 09:50:16;;;;;;;16.33;6.63;;;;;;;10.16;100.00;103023.91;5005433;28;20836;-76
2024/03/20 09:52:42;;;;;;;17.37;5.67;;;;;;;9.54;100.00;102873.28;5006075;28;20487;-76
2024/03/20 09:55:13;;;;;;;15.30;6.13;;;;;;;10.03;100.00;102957.16;5006039;28;20208;-76
2024/03/20 09:57:42;;;;;;;18.80;6.27;;;;;;;10.69;100.00;103009.97;5005444;28;20184;-76
2024/03/20 10:00:14;;;;;;;15.07;6.53;;;;;;;10.09;100.00;102947.69;5006830;28;20458;-76
2024/03/20 10:02:41;;;;;;;16.53;5.80;;;;;;;10.67;100.00;103017.31;5005385;28;20500;-76
2024/03/20 10:05:07;;;;;;;16.33;5.90;;;;;;;10.58;100.00;102996.72;5003434;28;20475;-76
2024/03/20 10:07:32;;;;;;;16.57;7.07;;;;;;;9.98;100.00;102862.91;5002833;28;20463;-76
2024/03/20 10:09:57;;;;;;;15.43;6.20;;;;;;;11.21;100.00;103028.25;5005478;28;21103;-76
2024/03/20 10:12:24;;;;;;;13.77;6.07;;;;;;;11.67;100.00;103070.28;5007501;28;20694;-76
2024/03/20 10:14:50;;;;;;;17.80;5.80;;;;;;;11.25;100.00;102978.59;4993851;28;20281;-76
2024/03/20 10:17:17;;;;;;;12.47;6.23;;;;;;;11.88;100.00;103118.41;5013727;28;20467;-75
2024/03/20 10:19:44;;;;;;;14.23;5.60;;;;;;;10.63;100.00;102901.38;5005481;28;20606;-76
2024/03/20 10:22:10;;;;;;;15.27;6.67;;;;;;;10.53;100.00;102868.38;5005584;28;20455;-76
2024/03/20 10:24:36;;;;;;;15.00;6.67;;;;;;;10.68;100.00;102859.84;5005186;28;20472;-76
2024/03/20 10:27:03;;;;;;;17.87;7.80;;;;;;;10.79;100.00;102900.72;5007262;28;20486;-76
2024/03/20 10:29:30;;;;;;;13.33;6.53;;;;;;;10.98;100.00;102875.59;5002535;28;20866;-76
2024/03/20 10:32:01;;;;;;;13.97;6.43;;;;;;;11.43;100.00;102931.13;4984307;28;20728;-76
2024/03/20 10:34:27;;;;;;;16.70;6.47;;;;;;;11.85;100.00;103038.06;5002312;28;20451;-76
2024/03/20 10:36:54;;;;;;;18.20;8.00;;;;;;;11.81;100.00;102999.00;5003026;28;20428;-76
2024/03/20 10:39:27;;;;;;;14.60;6.80;;;;;;;11.95;100.00;103000.34;5005711;28;20803;-76
2024/03/20 10:41:55;;;;;;;15.00;6.60;;;;;;;11.57;100.00;102947.69;5004330;28;20446;-76
2024/03/20 10:44:22;;;;;;;18.57;7.70;;;;;;;11.62;100.00;102956.13;5004838;28;20467;-76
2024/03/20 10:46:54;;;;;;;20.80;7.47;;;;;;;12.21;100.00;102984.25;4981044;28;20461;-76
2024/03/20 10:49:22;;;;;;;17.80;7.27;;;;;;;11.38;100.00;102863.56;5003135;28;20444;-76
2024/03/20 10:51:49;;;;;;;15.93;7.27;;;;;;;11.45;100.00;102835.06;5001753;28;20942;-76
2024/03/20 10:54:16;;;;;;;18.93;7.57;;;;;;;11.10;100.00;102822.50;4984183;28;20474;-76
2024/03/20 10:56:43;;;;;;;21.77;7.73;;;;;;;11.92;100.00;102931.56;5001807;28;20432;-76
2024/03/20 10:59:15;;;;;;;18.50;6.90;;;;;;;11.09;100.00;102777.84;5004750;28;20447;-76
2024/03/20 11:01:58;;;;;;;19.47;8.07;;;;;;;10.75;100.00;102707.91;5004282;28;20452;-76
2024/03/20 11:04:41;;;;;;;13.90;7.17;;;;;;;11.15;100.00;102809.47;5002398;28;20459;-76
2024/03/20 11:07:40;;;;;;;16.20;6.50;;;;;;;11.10;100.00;102766.09;5001487;28;20435;-76
2024/03/20 11:10:17;;;;;;;14.63;7.13;;;;;;;11.57;100.00;102850.94;4963455;28;21037;-76